createdAt,value
2023-03-31T00:01:07.204Z,67.74
2023-03-31T00:06:08.152Z,67.84
2023-03-31T00:11:11.838Z,67.76
2023-03-31T00:16:12.499Z,67.68
2023-03-31T00:21:24.476Z,67.38
2023-03-31T00:26:28.121Z,66.65
2023-03-31T00:31:29.550Z,67.15
2023-03-31T00:36:31.106Z,68.04
2023-03-31T00:41:33.187Z,67.27
2023-03-31T00:46:37.970Z,66.93
2023-03-31T00:51:39.267Z,67.95
2023-03-31T00:56:45.377Z,67.66
2023-03-31T01:01:50.768Z,68.24
2023-03-31T01:07:00.843Z,67.85
2023-03-31T01:12:05.489Z,68.31
2023-03-31T01:17:09.733Z,67.58
2023-03-31T01:22:41.538Z,67.35
2023-03-31T01:28:10.094Z,67.24
2023-03-31T01:33:36.995Z,68.11
2023-03-31T01:39:08.923Z,67.89
2023-03-31T01:44:20.370Z,68.37
2023-03-31T01:49:30.046Z,68.82
2023-03-31T01:54:39.257Z,68.98
2023-03-31T01:59:51.015Z,70.21
2023-03-31T02:04:59.155Z,69.79
2023-03-31T02:10:03.522Z,69.29
2023-03-31T02:15:10.262Z,69.34
2023-03-31T02:20:15.350Z,69.77
2023-03-31T02:25:20.948Z,70.62
2023-03-31T02:30:23.347Z,71.31
2023-03-31T02:35:25.228Z,71.32
2023-03-31T02:40:27.734Z,72.92
2023-03-31T02:45:42.315Z,72.60
2023-03-31T02:51:02.574Z,74.03
2023-03-31T02:56:18.987Z,73.76
2023-03-31T03:01:40.267Z,75.14
2023-03-31T03:06:53.939Z,75.01
2023-03-31T03:12:09.595Z,74.73
2023-03-31T03:17:16.151Z,75.29
2023-03-31T03:22:16.810Z,74.69
2023-03-31T03:27:17.536Z,74.93
2023-03-31T03:32:19.546Z,74.85
2023-03-31T03:37:20.337Z,74.68
2023-03-31T03:42:21.051Z,74.82
2023-03-31T03:47:23.113Z,74.78
2023-03-31T03:52:23.861Z,74.66
2023-03-31T03:57:24.778Z,74.31
2023-03-31T04:02:28.763Z,74.07
2023-03-31T04:07:29.660Z,74.10
2023-03-31T04:12:30.552Z,73.77
2023-03-31T04:17:34.593Z,76.23
2023-03-31T04:22:40.801Z,74.71
2023-03-31T04:27:46.917Z,74.18
2023-03-31T04:32:50.702Z,73.54
2023-03-31T04:37:58.812Z,73.46
2023-03-31T04:42:59.761Z,73.99
2023-03-31T04:48:01.816Z,73.72
2023-03-31T04:53:02.812Z,72.72
2023-03-31T04:58:03.543Z,72.94
2023-03-31T05:03:06.760Z,72.84
2023-03-31T05:08:07.792Z,71.98
2023-03-31T05:13:10.436Z,71.82
2023-03-31T05:18:12.493Z,71.79
2023-03-31T05:23:13.998Z,72.00
2023-03-31T05:28:14.770Z,72.01
2023-03-31T05:33:16.861Z,72.34
2023-03-31T05:38:17.534Z,72.29
2023-03-31T05:43:18.952Z,71.69
2023-03-31T05:48:21.408Z,71.46
2023-03-31T05:53:22.290Z,69.80
2023-03-31T05:58:23.995Z,68.57
2023-03-31T06:03:26.072Z,67.69
2023-03-31T06:08:27.145Z,66.47
2023-03-31T06:13:27.867Z,66.45
2023-03-31T06:18:31.662Z,65.68
2023-03-31T06:23:32.859Z,66.91
2023-03-31T06:28:34.282Z,66.27
2023-03-31T06:33:36.789Z,66.16
2023-03-31T06:38:38.805Z,64.11
2023-03-31T06:43:39.542Z,64.51
2023-03-31T06:48:42.370Z,64.07
2023-03-31T06:53:43.091Z,64.16
2023-03-31T06:58:43.748Z,61.73
2023-03-31T07:03:45.846Z,61.08
2023-03-31T07:08:46.648Z,60.26
2023-03-31T07:13:47.311Z,60.00
2023-03-31T07:18:50.573Z,60.08
2023-03-31T07:23:51.364Z,60.37
2023-03-31T07:28:56.684Z,60.72
2023-03-31T07:33:58.838Z,60.98
2023-03-31T07:38:59.832Z,59.95
2023-03-31T07:44:00.619Z,59.51
2023-03-31T07:49:03.414Z,58.03
2023-03-31T07:54:04.236Z,56.80
2023-03-31T07:59:05.356Z,56.08
2023-03-31T08:04:08.966Z,56.08
2023-03-31T08:09:10.715Z,55.56
2023-03-31T08:14:13.946Z,56.87
2023-03-31T08:19:16.515Z,56.09
2023-03-31T08:24:17.410Z,56.79
2023-03-31T08:29:18.176Z,57.13
2023-03-31T08:34:20.384Z,56.63
2023-03-31T08:39:21.193Z,56.54
2023-03-31T08:44:30.695Z,57.46
2023-03-31T08:49:40.635Z,57.80
2023-03-31T08:54:45.697Z,58.09
2023-03-31T08:59:47.780Z,58.33
2023-03-31T09:05:11.428Z,58.83
2023-03-31T09:10:36.842Z,62.20
2023-03-31T09:15:44.230Z,62.41
2023-03-31T09:20:51.353Z,62.82
2023-03-31T09:25:52.212Z,61.12
2023-03-31T09:30:53.637Z,61.50
2023-03-31T09:35:55.673Z,62.06
2023-03-31T09:40:56.600Z,61.39
2023-03-31T09:46:09.188Z,61.32
2023-03-31T09:51:19.946Z,60.76
2023-03-31T09:56:36.060Z,60.99
2023-03-31T10:01:37.508Z,61.52
2023-03-31T10:06:43.269Z,63.23
2023-03-31T10:11:55.742Z,62.40
2023-03-31T10:16:58.774Z,61.87
2023-03-31T10:22:03.194Z,60.97
2023-03-31T10:27:03.943Z,60.93
2023-03-31T10:32:10.070Z,62.54
2023-03-31T10:37:18.150Z,61.71
2023-03-31T10:42:23.506Z,61.84
2023-03-31T10:47:24.456Z,62.72
2023-03-31T10:52:28.193Z,62.39
2023-03-31T10:57:41.538Z,62.60
2023-03-31T11:03:11.425Z,64.12
2023-03-31T11:08:27.132Z,64.46
2023-03-31T11:13:37.026Z,65.29
2023-03-31T11:18:59.522Z,67.31
2023-03-31T11:24:11.446Z,68.37
2023-03-31T11:29:31.848Z,69.30
2023-03-31T11:34:53.141Z,71.90
2023-03-31T11:40:10.566Z,71.89
2023-03-31T11:45:17.711Z,72.88
2023-03-31T11:50:22.326Z,74.42
2023-03-31T11:55:28.996Z,73.54
2023-03-31T12:00:33.636Z,76.07
2023-03-31T12:05:38.470Z,75.64
2023-03-31T12:10:46.056Z,77.53
2023-03-31T12:16:01.190Z,77.71
2023-03-31T12:21:06.200Z,79.58
2023-03-31T12:26:16.840Z,79.68
2023-03-31T12:31:23.997Z,79.65
2023-03-31T12:36:37.514Z,80.81
2023-03-31T12:41:55.705Z,81.24
2023-03-31T12:47:16.369Z,82.50
2023-03-31T12:52:23.784Z,82.78
2023-03-31T12:57:26.961Z,82.83
2023-03-31T13:02:28.057Z,83.39
2023-03-31T13:07:49.783Z,84.47
2023-03-31T13:13:02.735Z,83.82
2023-03-31T13:18:05.174Z,83.51
2023-03-31T13:23:15.906Z,83.60
2023-03-31T13:28:26.621Z,83.60
2023-03-31T13:33:35.506Z,84.13
2023-03-31T13:38:51.553Z,83.68
2023-03-31T13:44:09.925Z,81.48
2023-03-31T13:49:41.690Z,81.32
2023-03-31T13:55:03.500Z,80.73
2023-03-31T14:00:30.367Z,77.31
2023-03-31T14:05:34.808Z,77.07
2023-03-31T14:10:37.993Z,72.22
2023-03-31T14:15:43.486Z,69.29
2023-03-31T14:21:00.521Z,69.48
2023-03-31T14:26:06.221Z,67.46
2023-03-31T14:31:20.475Z,66.52
2023-03-31T14:36:30.128Z,65.94
2023-03-31T14:41:31.106Z,63.19
2023-03-31T14:46:39.267Z,63.03
2023-03-31T14:51:45.643Z,62.60
2023-03-31T14:56:50.155Z,62.36
2023-03-31T15:01:52.765Z,61.85
2023-03-31T15:06:54.386Z,61.24
2023-03-31T15:11:58.433Z,61.70
2023-03-31T15:17:00.690Z,60.90
2023-03-31T15:22:04.789Z,60.48
2023-03-31T15:27:10.535Z,61.26
2023-03-31T15:32:17.402Z,61.89
2023-03-31T15:37:23.813Z,62.48
2023-03-31T15:42:25.089Z,63.41
2023-03-31T15:47:30.544Z,64.01
2023-03-31T15:52:35.140Z,64.37
2023-03-31T15:57:36.779Z,64.35
2023-03-31T16:02:44.683Z,63.60
2023-03-31T16:07:46.796Z,62.14
2023-03-31T16:12:53.464Z,61.54
2023-03-31T16:17:58.030Z,63.19
2023-03-31T16:22:59.910Z,63.88
2023-03-31T16:28:02.894Z,65.86
2023-03-31T16:33:07.044Z,66.64
2023-03-31T16:38:09.576Z,66.60
2023-03-31T16:43:15.824Z,67.25
2023-03-31T16:48:18.978Z,69.13
2023-03-31T16:53:22.313Z,67.95
2023-03-31T16:58:24.389Z,68.13
2023-03-31T17:03:27.450Z,68.82
2023-03-31T17:08:28.894Z,69.85
2023-03-31T17:13:29.728Z,69.84
2023-03-31T17:18:31.911Z,71.75
2023-03-31T17:23:33.249Z,73.99
2023-03-31T17:28:34.876Z,75.15
2023-03-31T17:33:36.925Z,74.75
2023-03-31T17:38:38.525Z,74.76
2023-03-31T17:43:39.340Z,74.95
2023-03-31T17:48:41.957Z,75.69
2023-03-31T17:53:45.099Z,76.00
2023-03-31T17:58:46.796Z,75.34
2023-03-31T18:03:49.690Z,77.29
2023-03-31T18:08:50.386Z,76.56
2023-03-31T18:13:51.411Z,76.13
2023-03-31T18:18:53.833Z,76.31
2023-03-31T18:23:55.161Z,76.42
2023-03-31T18:28:55.946Z,76.56
2023-03-31T18:33:57.995Z,75.52
2023-03-31T18:38:58.763Z,76.05
2023-03-31T18:44:00.470Z,75.55
2023-03-31T18:49:05.860Z,76.81
2023-03-31T18:54:06.845Z,76.03
2023-03-31T18:59:07.535Z,76.31
2023-03-31T19:04:10.554Z,75.84
2023-03-31T19:09:11.485Z,75.67
2023-03-31T19:14:12.406Z,73.61
2023-03-31T19:19:14.652Z,72.14
2023-03-31T19:24:15.521Z,68.58
2023-03-31T19:29:16.230Z,68.06
2023-03-31T19:34:18.231Z,68.01
2023-03-31T19:39:18.946Z,67.60
2023-03-31T19:44:19.666Z,66.60
2023-03-31T19:49:21.772Z,67.40
2023-03-31T19:54:22.772Z,68.10
2023-03-31T19:59:23.737Z,67.28
2023-03-31T20:04:26.270Z,67.89
2023-03-31T20:09:27.727Z,67.73
2023-03-31T20:14:29.391Z,67.67
2023-03-31T20:19:31.598Z,67.09
2023-03-31T20:24:33.236Z,66.90
2023-03-31T20:29:34.378Z,67.04
2023-03-31T20:34:37.703Z,68.86
2023-03-31T20:39:38.884Z,68.71
2023-03-31T20:44:39.912Z,69.41
2023-03-31T20:49:44.651Z,70.07
2023-03-31T20:54:47.184Z,70.74
2023-03-31T20:59:50.210Z,72.15
2023-03-31T21:04:53.908Z,72.25
2023-03-31T21:09:57.064Z,72.99
2023-03-31T21:14:58.286Z,71.99
2023-03-31T21:20:00.595Z,71.75
2023-03-31T21:25:02.964Z,71.87
2023-03-31T21:30:04.754Z,72.09
2023-03-31T21:35:08.971Z,73.25
2023-03-31T21:40:12.297Z,72.23
2023-03-31T21:45:16.192Z,72.41
2023-03-31T21:50:20.229Z,72.38
2023-03-31T21:55:22.163Z,72.98
2023-03-31T22:00:25.741Z,73.33
2023-03-31T22:05:29.386Z,71.98
2023-03-31T22:10:31.431Z,72.83
2023-03-31T22:16:10.310Z,71.93
2023-03-31T22:21:19.865Z,72.08
2023-03-31T22:26:21.950Z,71.64
2023-03-31T22:31:26.556Z,70.93
2023-03-31T22:36:30.232Z,71.18
2023-03-31T22:41:33.052Z,70.13
2023-03-31T22:46:35.574Z,70.40
2023-03-31T22:51:40.924Z,70.29
2023-03-31T22:56:43.168Z,70.58
2023-03-31T23:01:47.191Z,70.50
2023-03-31T23:06:51.251Z,70.14
2023-03-31T23:11:53.820Z,70.46
2023-03-31T23:16:56.607Z,70.18
2023-03-31T23:22:02.429Z,70.83
2023-03-31T23:27:04.691Z,70.50
2023-03-31T23:32:07.519Z,70.11
2023-03-31T23:37:12.874Z,70.88
2023-03-31T23:42:20.076Z,70.97
2023-03-31T23:47:23.391Z,71.80
2023-03-31T23:52:28.442Z,72.85
2023-03-31T23:57:29.860Z,74.57
